createdAt,value
2018-07-22T00:02:16.493Z,100.00
2018-07-22T00:04:44.516Z,100.00
2018-07-22T00:07:12.588Z,100.00
2018-07-22T00:09:40.520Z,100.00
2018-07-22T00:12:08.916Z,100.00
2018-07-22T00:14:36.995Z,100.00
2018-07-22T00:17:05.057Z,100.00
2018-07-22T00:19:33.131Z,100.00
2018-07-22T00:22:02.660Z,100.00
2018-07-22T00:24:30.768Z,100.00
2018-07-22T00:26:58.656Z,100.00
2018-07-22T00:29:26.568Z,100.00
2018-07-22T00:31:54.804Z,100.00
2018-07-22T00:34:22.792Z,100.00
2018-07-22T00:36:50.769Z,100.00
2018-07-22T00:39:18.731Z,100.00
2018-07-22T00:41:46.868Z,100.00
2018-07-22T00:44:14.875Z,100.00
2018-07-22T00:46:42.860Z,100.00
2018-07-22T00:49:10.911Z,100.00
2018-07-22T00:51:38.883Z,100.00
2018-07-22T00:54:06.959Z,100.00
2018-07-22T00:56:35.332Z,100.00
2018-07-22T00:59:03.295Z,100.00
2018-07-22T01:01:31.432Z,100.00
2018-07-22T01:03:59.584Z,100.00
2018-07-22T01:06:27.524Z,100.00
2018-07-22T01:08:55.493Z,100.00
2018-07-22T01:11:23.455Z,100.00
2018-07-22T01:13:51.424Z,100.00
2018-07-22T01:16:19.388Z,100.00
2018-07-22T01:18:47.363Z,100.00
2018-07-22T01:21:15.328Z,100.00
2018-07-22T01:23:43.307Z,100.00
2018-07-22T01:26:11.581Z,100.00
2018-07-22T01:28:39.560Z,100.00
2018-07-22T01:31:07.737Z,100.00
2018-07-22T01:33:35.896Z,100.00
2018-07-22T01:36:03.731Z,100.00
2018-07-22T01:38:31.607Z,100.00
2018-07-22T01:40:59.489Z,100.00
2018-07-22T01:43:27.560Z,100.00
2018-07-22T01:45:55.504Z,100.00
2018-07-22T01:48:23.395Z,100.00
2018-07-22T01:50:51.363Z,100.00
2018-07-22T01:53:19.323Z,100.00
2018-07-22T01:55:47.311Z,100.00
2018-07-22T01:58:15.268Z,100.00
2018-07-22T02:00:43.240Z,100.00
2018-07-22T02:03:11.392Z,100.00
2018-07-22T02:05:39.251Z,100.00
2018-07-22T02:08:07.148Z,100.00
2018-07-22T02:10:35.116Z,100.00
2018-07-22T02:13:02.981Z,100.00
2018-07-22T02:15:30.956Z,100.00
2018-07-22T02:17:58.912Z,100.00
2018-07-22T02:20:27.092Z,100.00
2018-07-22T02:22:54.956Z,100.00
2018-07-22T02:25:22.934Z,100.00
2018-07-22T02:27:50.892Z,100.00
2018-07-22T02:30:18.848Z,100.00
2018-07-22T02:32:46.836Z,100.00
2018-07-22T02:35:14.928Z,100.00
2018-07-22T02:37:42.977Z,100.00
2018-07-22T02:40:10.941Z,100.00
2018-07-22T02:42:38.916Z,100.00
2018-07-22T02:45:06.824Z,100.00
2018-07-22T02:47:34.752Z,100.00
2018-07-22T02:50:02.992Z,100.00
2018-07-22T02:52:30.998Z,100.00
2018-07-22T02:54:58.960Z,100.00
2018-07-22T02:57:27.069Z,100.00
2018-07-22T02:59:55.136Z,100.00
2018-07-22T03:02:23.073Z,100.00
2018-07-22T03:04:51.024Z,100.00
2018-07-22T03:07:18.910Z,100.00
2018-07-22T03:09:46.777Z,100.00
2018-07-22T03:12:14.735Z,100.00
2018-07-22T03:14:42.820Z,100.00
2018-07-22T03:17:12.004Z,100.00
2018-07-22T03:19:40.096Z,100.00
2018-07-22T03:22:08.177Z,100.00
2018-07-22T03:24:36.450Z,100.00
2018-07-22T03:27:04.712Z,100.00
2018-07-22T03:29:32.678Z,100.00
2018-07-22T03:32:00.631Z,100.00
2018-07-22T03:34:28.620Z,100.00
2018-07-22T03:36:56.584Z,100.00
2018-07-22T03:39:24.444Z,100.00
2018-07-22T03:41:52.506Z,100.00
2018-07-22T03:44:20.587Z,100.00
2018-07-22T03:46:48.464Z,100.00
2018-07-22T03:49:16.628Z,100.00
2018-07-22T03:51:44.599Z,100.00
2018-07-22T03:54:12.524Z,100.00
2018-07-22T03:56:40.436Z,100.00
2018-07-22T03:59:08.721Z,100.00
2018-07-22T04:01:36.776Z,100.00
2018-07-22T04:04:04.756Z,100.00
2018-07-22T04:06:32.803Z,100.00
2018-07-22T04:09:00.801Z,100.00
2018-07-22T04:11:28.759Z,100.00
2018-07-22T04:13:56.831Z,100.00
2018-07-22T04:16:24.773Z,100.00
2018-07-22T04:18:54.055Z,100.00
2018-07-22T04:21:24.012Z,100.00
2018-07-22T04:23:51.975Z,100.00
2018-07-22T04:26:20.897Z,100.00
2018-07-22T04:28:49.260Z,100.00
2018-07-22T04:31:17.448Z,100.00
2018-07-22T04:33:45.392Z,100.00
2018-07-22T04:36:13.371Z,100.00
2018-07-22T04:38:41.329Z,100.00
2018-07-22T04:41:09.406Z,100.00
2018-07-22T04:43:37.351Z,100.00
2018-07-22T04:46:05.252Z,100.00
2018-07-22T04:48:33.176Z,100.00
2018-07-22T04:51:01.268Z,100.00
2018-07-22T04:53:29.261Z,100.00
2018-07-22T04:55:57.300Z,100.00
2018-07-22T04:58:25.289Z,100.00
2018-07-22T05:00:53.367Z,100.00
2018-07-22T05:03:21.320Z,100.00
2018-07-22T05:05:49.292Z,100.00
2018-07-22T05:08:17.468Z,100.00
2018-07-22T05:10:45.440Z,100.00
2018-07-22T05:13:13.388Z,100.00
2018-07-22T05:15:41.272Z,100.00
2018-07-22T05:18:09.211Z,100.00
2018-07-22T05:20:37.249Z,100.00
2018-07-22T05:23:05.280Z,100.00
2018-07-22T05:25:33.368Z,100.00
2018-07-22T05:28:01.320Z,100.00
2018-07-22T05:30:29.261Z,100.00
2018-07-22T05:32:57.261Z,100.00
2018-07-22T05:35:25.200Z,100.00
2018-07-22T05:37:53.104Z,100.00
2018-07-22T05:40:21.157Z,100.00
2018-07-22T05:42:49.128Z,100.00
2018-07-22T05:45:17.311Z,100.00
2018-07-22T05:47:45.279Z,100.00
2018-07-22T05:50:13.245Z,100.00
2018-07-22T05:52:41.336Z,100.00
2018-07-22T05:55:09.387Z,100.00
2018-07-22T05:57:37.350Z,100.00
2018-07-22T06:00:06.698Z,99.66
2018-07-22T06:02:34.824Z,100.00
2018-07-22T06:05:02.895Z,100.00
2018-07-22T06:07:30.844Z,100.00
2018-07-22T06:09:58.712Z,99.65
2018-07-22T06:12:26.604Z,99.93
2018-07-22T06:14:54.768Z,98.94
2018-07-22T06:17:22.751Z,99.27
2018-07-22T06:19:50.816Z,98.51
2018-07-22T06:22:18.784Z,97.99
2018-07-22T06:24:46.800Z,97.75
2018-07-22T06:27:14.820Z,97.91
2018-07-22T06:29:42.877Z,98.24
2018-07-22T06:32:11.176Z,98.06
2018-07-22T06:34:39.108Z,97.86
2018-07-22T06:37:07.489Z,98.30
2018-07-22T06:39:35.377Z,97.72
2018-07-22T06:42:03.400Z,97.87
2018-07-22T06:44:31.420Z,98.02
2018-07-22T06:46:59.392Z,97.53
2018-07-22T06:49:27.256Z,95.74
2018-07-22T06:51:55.308Z,95.55
2018-07-22T06:54:23.285Z,96.20
2018-07-22T06:56:51.268Z,96.76
2018-07-22T06:59:19.207Z,95.38
2018-07-22T07:01:47.102Z,95.66
2018-07-22T07:04:15.075Z,94.01
2018-07-22T07:06:43.123Z,94.56
2018-07-22T07:09:12.048Z,92.53
2018-07-22T07:11:40.321Z,91.05
2018-07-22T07:14:08.709Z,90.87
2018-07-22T07:16:36.882Z,91.33
2018-07-22T07:19:05.120Z,91.94
2018-07-22T07:21:32.980Z,88.67
2018-07-22T07:24:00.877Z,89.56
2018-07-22T07:26:28.732Z,89.73
2018-07-22T07:28:56.704Z,91.52
2018-07-22T07:31:24.652Z,91.58
2018-07-22T07:33:52.553Z,92.03
2018-07-22T07:36:20.604Z,91.34
2018-07-22T07:38:48.594Z,89.74
2018-07-22T07:41:16.572Z,89.41
2018-07-22T07:43:44.716Z,91.06
2018-07-22T07:46:12.692Z,90.49
2018-07-22T07:48:40.655Z,89.60
2018-07-22T07:51:08.632Z,89.63
2018-07-22T07:53:36.564Z,82.93
2018-07-22T07:56:04.567Z,78.95
2018-07-22T07:58:32.668Z,83.96
2018-07-22T08:01:00.712Z,83.84
2018-07-22T08:03:28.672Z,85.09
2018-07-22T08:05:56.653Z,84.49
2018-07-22T08:08:24.604Z,84.60
2018-07-22T08:10:52.744Z,86.42
2018-07-22T08:13:20.803Z,87.43
2018-07-22T08:15:48.722Z,86.38
2018-07-22T08:18:16.701Z,86.21
2018-07-22T08:20:45.610Z,89.17
2018-07-22T08:26:24.817Z,89.61
2018-07-22T08:29:03.976Z,86.76
2018-07-22T08:31:31.950Z,83.99
2018-07-22T08:33:59.876Z,83.67
2018-07-22T08:36:27.801Z,83.26
2018-07-22T08:38:55.736Z,84.35
2018-07-22T08:41:23.619Z,83.89
2018-07-22T08:43:51.580Z,83.39
2018-07-22T08:46:19.544Z,84.49
2018-07-22T08:48:49.048Z,84.45
2018-07-22T08:51:17.016Z,84.04
2018-07-22T08:53:45.031Z,82.64
2018-07-22T08:56:12.904Z,85.12
2018-07-22T08:58:40.970Z,83.99
2018-07-22T09:01:08.905Z,84.12
2018-07-22T09:03:36.840Z,84.44
2018-07-22T09:06:05.013Z,84.87
2018-07-22T09:08:32.881Z,86.48
2018-07-22T09:11:00.778Z,86.34
2018-07-22T09:13:28.759Z,84.67
2018-07-22T09:15:56.689Z,84.59
2018-07-22T09:18:24.991Z,84.10
2018-07-22T09:20:52.947Z,85.63
2018-07-22T09:23:20.918Z,85.20
2018-07-22T09:25:48.891Z,82.34
2018-07-22T09:28:16.896Z,82.91
2018-07-22T09:30:44.828Z,82.26
2018-07-22T09:33:12.744Z,80.30
2018-07-22T09:35:40.664Z,82.16
2018-07-22T09:38:08.628Z,79.38
2018-07-22T09:40:36.633Z,81.19
2018-07-22T09:43:04.780Z,83.15
2018-07-22T09:45:32.877Z,80.72
2018-07-22T09:48:00.942Z,80.78
2018-07-22T09:50:28.900Z,81.15
2018-07-22T09:52:56.876Z,80.33
2018-07-22T09:55:24.754Z,80.45
2018-07-22T09:57:52.716Z,78.88
2018-07-22T10:00:26.277Z,78.98
2018-07-22T10:02:54.262Z,80.17
2018-07-22T10:05:22.146Z,79.52
2018-07-22T10:07:50.120Z,78.24
2018-07-22T10:10:18.193Z,78.20
2018-07-22T10:12:46.148Z,77.64
2018-07-22T10:15:14.260Z,80.11
2018-07-22T10:17:42.423Z,78.95
2018-07-22T10:20:10.341Z,77.39
2018-07-22T10:22:38.539Z,79.89
2018-07-22T10:25:06.457Z,76.18
2018-07-22T10:27:34.372Z,76.21
2018-07-22T10:30:02.232Z,77.42
2018-07-22T10:32:30.210Z,77.57
2018-07-22T10:34:58.186Z,78.05
2018-07-22T10:37:26.256Z,79.19
2018-07-22T10:39:54.339Z,76.43
2018-07-22T10:42:22.500Z,80.39
2018-07-22T10:44:50.880Z,79.76
2018-07-22T10:47:18.861Z,77.73
2018-07-22T10:49:46.801Z,73.69
2018-07-22T10:52:15.192Z,75.47
2018-07-22T10:54:43.171Z,74.11
2018-07-22T10:57:11.357Z,71.69
2018-07-22T10:59:39.600Z,73.04
2018-07-22T11:02:07.819Z,72.15
2018-07-22T11:04:35.769Z,72.09
2018-07-22T11:07:04.047Z,69.21
2018-07-22T11:09:32.327Z,66.74
2018-07-22T11:12:00.295Z,67.97
2018-07-22T11:14:28.578Z,68.42
2018-07-22T11:16:56.616Z,67.14
2018-07-22T11:19:24.857Z,64.54
2018-07-22T11:21:52.813Z,62.53
2018-07-22T11:24:20.779Z,64.79
2018-07-22T11:26:49.097Z,64.63
2018-07-22T11:29:17.020Z,64.95
2018-07-22T11:31:45.045Z,66.01
2018-07-22T11:34:13.224Z,64.61
2018-07-22T11:36:41.149Z,65.65
2018-07-22T11:39:10.198Z,65.39
2018-07-22T11:41:38.820Z,64.36
2018-07-22T11:44:07.312Z,62.94
2018-07-22T11:46:35.809Z,64.39
2018-07-22T11:49:03.952Z,62.67
2018-07-22T11:51:32.038Z,64.77
2018-07-22T11:54:00.368Z,62.43
2018-07-22T11:56:28.653Z,63.41
2018-07-22T11:58:56.917Z,64.42
2018-07-22T12:01:25.107Z,64.50
2018-07-22T12:03:53.043Z,61.74
2018-07-22T12:06:21.237Z,62.81
2018-07-22T12:08:49.407Z,63.32
2018-07-22T12:11:17.893Z,67.49
2018-07-22T12:13:46.265Z,66.70
2018-07-22T12:16:14.215Z,67.73
2018-07-22T12:18:42.204Z,68.02
2018-07-22T12:21:10.539Z,67.50
2018-07-22T12:23:38.775Z,69.34
2018-07-22T12:26:06.972Z,68.51
2018-07-22T12:28:35.112Z,67.84
2018-07-22T12:31:03.745Z,68.30
2018-07-22T12:33:31.789Z,66.68
2018-07-22T12:35:59.756Z,65.65
2018-07-22T12:38:27.973Z,65.53
2018-07-22T12:40:56.001Z,65.14
2018-07-22T12:43:23.939Z,65.01
2018-07-22T12:45:51.848Z,64.44
2018-07-22T12:48:19.823Z,63.71
2018-07-22T12:50:47.868Z,64.34
2018-07-22T12:53:15.868Z,66.59
2018-07-22T12:55:43.809Z,66.20
2018-07-22T12:58:11.788Z,67.31
2018-07-22T13:00:39.752Z,67.59
2018-07-22T13:03:07.838Z,68.61
2018-07-22T13:05:36.452Z,69.77
2018-07-22T13:08:04.351Z,69.68
2018-07-22T13:10:32.425Z,70.48
2018-07-22T13:13:00.392Z,70.12
2018-07-22T13:15:28.283Z,71.82
2018-07-22T13:17:56.252Z,71.83
2018-07-22T13:20:24.316Z,75.96
2018-07-22T13:22:52.296Z,80.04
2018-07-22T13:25:20.260Z,80.97
2018-07-22T13:27:48.349Z,81.74
2018-07-22T13:30:16.396Z,83.65
2018-07-22T13:32:44.268Z,84.47
2018-07-22T13:35:12.544Z,84.78
2018-07-22T13:37:40.620Z,84.19
2018-07-22T13:40:08.598Z,84.80
2018-07-22T13:42:36.555Z,84.29
2018-07-22T13:45:05.095Z,83.02
2018-07-22T13:47:33.016Z,83.72
2018-07-22T13:50:00.989Z,81.52
2018-07-22T13:52:29.132Z,81.91
2018-07-22T13:54:57.097Z,78.93
2018-07-22T13:57:25.081Z,78.48
2018-07-22T13:59:53.025Z,78.92
2018-07-22T14:02:21.028Z,80.98
2018-07-22T14:04:48.988Z,81.87
2018-07-22T14:07:16.996Z,81.75
2018-07-22T14:09:45.105Z,78.08
2018-07-22T14:12:13.000Z,78.76
2018-07-22T14:14:40.972Z,80.00
2018-07-22T14:17:08.941Z,77.38
2018-07-22T14:19:37.120Z,78.64
2018-07-22T14:22:05.088Z,79.40
2018-07-22T14:24:33.057Z,79.84
2018-07-22T14:27:01.013Z,78.70
2018-07-22T14:29:29.001Z,76.44
2018-07-22T14:31:56.975Z,80.16
2018-07-22T14:34:25.028Z,78.45
2018-07-22T14:36:53.150Z,78.81
2018-07-22T14:39:21.073Z,77.16
2018-07-22T14:41:49.132Z,76.45
2018-07-22T14:44:17.103Z,76.91
2018-07-22T14:46:45.310Z,79.04
2018-07-22T14:49:13.224Z,79.11
2018-07-22T14:51:41.226Z,80.18
2018-07-22T14:54:09.243Z,80.53
2018-07-22T14:56:37.161Z,80.59
2018-07-22T14:59:05.223Z,78.36
2018-07-22T15:01:33.296Z,80.15
2018-07-22T15:04:15.027Z,81.47
2018-07-22T15:06:44.173Z,80.19
2018-07-22T15:09:12.155Z,79.55
2018-07-22T15:11:40.250Z,80.56
2018-07-22T15:14:08.401Z,80.56
2018-07-22T15:16:36.237Z,76.63
2018-07-22T15:19:04.309Z,76.00
2018-07-22T15:21:32.255Z,75.51
2018-07-22T15:24:00.379Z,77.66
2018-07-22T15:26:28.444Z,75.26
2018-07-22T15:28:56.428Z,75.21
2018-07-22T15:31:24.357Z,74.46
2018-07-22T15:33:52.249Z,75.90
2018-07-22T15:36:20.197Z,74.97
2018-07-22T15:38:48.184Z,76.44
2018-07-22T15:41:16.160Z,77.99
2018-07-22T15:43:44.300Z,76.20
2018-07-22T15:46:12.305Z,77.26
2018-07-22T15:48:40.293Z,77.37
2018-07-22T15:51:08.347Z,78.53
2018-07-22T15:53:36.404Z,80.01
2018-07-22T15:56:04.510Z,78.69
2018-07-22T15:58:32.351Z,79.57
2018-07-22T16:01:00.320Z,78.91
2018-07-22T16:03:28.297Z,81.28
2018-07-22T16:05:56.220Z,78.51
2018-07-22T16:08:24.221Z,77.79
2018-07-22T16:10:52.388Z,77.49
2018-07-22T16:13:20.364Z,80.91
2018-07-22T16:15:48.331Z,81.60
2018-07-22T16:18:16.307Z,80.73
2018-07-22T16:20:44.364Z,80.59
2018-07-22T16:23:12.385Z,79.76
2018-07-22T16:25:40.415Z,82.60
2018-07-22T16:28:08.551Z,82.74
2018-07-22T16:30:36.537Z,83.96
2018-07-22T16:33:04.732Z,84.69
2018-07-22T16:35:32.696Z,85.32
2018-07-22T16:38:00.770Z,86.38
2018-07-22T16:40:28.716Z,86.15
2018-07-22T16:42:56.608Z,85.82
2018-07-22T16:45:24.677Z,85.52
2018-07-22T16:47:52.844Z,86.41
2018-07-22T16:50:20.797Z,85.88
2018-07-22T16:52:48.781Z,84.66
2018-07-22T16:55:16.716Z,85.36
2018-07-22T16:57:44.565Z,86.48
2018-07-22T17:00:12.457Z,85.16
2018-07-22T17:02:40.465Z,84.20
2018-07-22T17:05:08.422Z,85.21
2018-07-22T17:07:36.408Z,85.01
2018-07-22T17:10:04.457Z,86.20
2018-07-22T17:12:32.560Z,86.99
2018-07-22T17:15:00.616Z,85.47
2018-07-22T17:17:29.043Z,85.03
2018-07-22T17:19:57.326Z,84.36
2018-07-22T17:22:25.332Z,85.22
2018-07-22T17:24:53.313Z,85.59
2018-07-22T17:27:21.443Z,84.73
2018-07-22T17:29:49.572Z,84.58
2018-07-22T17:32:17.844Z,85.78
2018-07-22T17:34:46.715Z,84.39
2018-07-22T17:37:14.685Z,85.35
2018-07-22T17:39:42.845Z,86.31
2018-07-22T17:42:11.028Z,85.62
2018-07-22T17:44:39.032Z,86.04
2018-07-22T17:47:07.100Z,86.45
2018-07-22T17:49:35.040Z,86.12
2018-07-22T17:52:02.970Z,86.79
2018-07-22T17:54:31.010Z,87.94
2018-07-22T17:56:59.041Z,87.10
2018-07-22T17:59:26.904Z,88.44
2018-07-22T18:01:55.004Z,89.10
2018-07-22T18:04:23.051Z,90.05
2018-07-22T18:06:51.086Z,90.06
2018-07-22T18:09:19.201Z,91.07
2018-07-22T18:11:47.288Z,91.38
2018-07-22T18:14:15.715Z,91.62
2018-07-22T18:16:43.735Z,91.98
2018-07-22T18:19:11.991Z,92.27
2018-07-22T18:21:40.234Z,92.69
2018-07-22T18:24:08.217Z,92.93
2018-07-22T18:26:36.213Z,93.35
2018-07-22T18:29:04.300Z,93.75
2018-07-22T18:31:32.469Z,94.41
2018-07-22T18:34:00.574Z,94.36
2018-07-22T18:36:28.596Z,93.72
2018-07-22T18:38:56.567Z,94.55
2018-07-22T18:41:24.836Z,94.80
2018-07-22T18:43:52.784Z,94.15
2018-07-22T18:46:20.972Z,95.61
2018-07-22T18:48:49.101Z,95.02
2018-07-22T18:51:17.225Z,95.33
2018-07-22T18:53:45.476Z,95.75
2018-07-22T18:56:13.820Z,95.70
2018-07-22T18:58:41.844Z,95.99
2018-07-22T19:01:09.920Z,96.58
2018-07-22T19:03:38.015Z,96.66
2018-07-22T19:06:06.077Z,96.49
2018-07-22T19:08:34.017Z,96.83
2018-07-22T19:11:02.000Z,96.80
2018-07-22T19:13:30.085Z,96.76
2018-07-22T19:15:58.040Z,96.99
2018-07-22T19:18:26.004Z,97.03
2018-07-22T19:20:53.976Z,96.85
2018-07-22T19:23:22.092Z,97.69
2018-07-22T19:25:50.431Z,97.88
2018-07-22T19:28:18.495Z,97.94
2018-07-22T19:30:55.035Z,97.73
2018-07-22T19:33:23.032Z,98.28
2018-07-22T19:35:51.612Z,99.04
2018-07-22T19:38:19.940Z,98.73
2018-07-22T19:40:47.957Z,99.04
2018-07-22T19:43:15.997Z,99.18
2018-07-22T19:45:44.131Z,98.68
2018-07-22T19:48:12.477Z,99.35
2018-07-22T19:50:40.456Z,98.92
2018-07-22T19:53:08.427Z,98.91
2018-07-22T19:55:36.536Z,98.60
2018-07-22T19:58:04.988Z,99.03
2018-07-22T20:00:33.205Z,99.22
2018-07-22T20:03:01.347Z,99.32
2018-07-22T20:05:29.725Z,99.29
2018-07-22T20:07:57.671Z,98.89
2018-07-22T20:10:25.716Z,99.26
2018-07-22T20:12:53.924Z,99.51
2018-07-22T20:15:21.981Z,99.38
2018-07-22T20:17:50.065Z,99.63
2018-07-22T20:20:18.135Z,99.20
2018-07-22T20:22:46.308Z,99.45
2018-07-22T20:25:14.280Z,99.44
2018-07-22T20:27:42.212Z,99.75
2018-07-22T20:30:10.200Z,99.50
2018-07-22T20:32:38.284Z,99.24
2018-07-22T20:35:06.420Z,99.60
2018-07-22T20:37:34.437Z,99.57
2018-07-22T20:40:02.510Z,99.52
2018-07-22T20:42:30.560Z,99.12
2018-07-22T20:44:58.736Z,99.21
2018-07-22T20:47:26.816Z,99.24
2018-07-22T20:49:54.835Z,98.95
2018-07-22T20:52:22.760Z,99.44
2018-07-22T20:54:50.920Z,99.43
2018-07-22T20:57:19.099Z,99.27
2018-07-22T20:59:47.068Z,99.84
2018-07-22T21:02:15.030Z,99.54
2018-07-22T21:04:43.112Z,99.45
2018-07-22T21:07:11.371Z,99.33
2018-07-22T21:09:39.355Z,99.45
2018-07-22T21:12:51.252Z,99.61
2018-07-22T21:15:19.645Z,99.21
2018-07-22T21:17:49.026Z,99.12
2018-07-22T21:20:18.166Z,99.50
2018-07-22T21:22:46.248Z,99.03
2018-07-22T21:25:14.884Z,98.91
2018-07-22T21:27:42.856Z,99.21
2018-07-22T21:30:11.558Z,99.10
2018-07-22T21:32:39.731Z,99.51
2018-07-22T21:35:08.267Z,99.16
2018-07-22T21:37:36.364Z,99.26
2018-07-22T21:40:05.176Z,99.04
2018-07-22T21:42:33.419Z,99.49
2018-07-22T21:45:02.120Z,98.89
2018-07-22T21:47:30.160Z,99.49
2018-07-22T21:49:58.155Z,99.25
2018-07-22T21:52:26.249Z,99.46
2018-07-22T21:54:54.308Z,98.72
2018-07-22T21:57:22.303Z,99.17
2018-07-22T21:59:50.696Z,99.05
2018-07-22T22:02:18.704Z,98.84
2018-07-22T22:04:46.680Z,99.15
2018-07-22T22:07:14.849Z,98.63
2018-07-22T22:09:43.146Z,99.15
2018-07-22T22:12:11.204Z,99.01
2018-07-22T22:14:39.066Z,99.39
2018-07-22T22:17:07.159Z,98.90
2018-07-22T22:19:35.196Z,99.23
2018-07-22T22:22:03.324Z,99.19
2018-07-22T22:24:31.377Z,98.85
2018-07-22T22:26:59.528Z,99.06
2018-07-22T22:29:27.503Z,99.08
2018-07-22T22:31:55.757Z,99.09
2018-07-22T22:34:24.255Z,98.74
2018-07-22T22:36:52.216Z,98.63
2018-07-22T22:39:20.300Z,99.22
2018-07-22T22:41:48.236Z,99.09
2018-07-22T22:44:16.208Z,99.38
2018-07-22T22:46:44.189Z,99.34
2018-07-22T22:49:12.376Z,98.97
2018-07-22T22:51:40.348Z,98.96
2018-07-22T22:54:08.273Z,98.95
2018-07-22T22:56:36.492Z,99.10
2018-07-22T22:59:17.139Z,99.04
2018-07-22T23:01:45.354Z,99.22
2018-07-22T23:04:13.602Z,99.08
2018-07-22T23:06:41.672Z,99.07
2018-07-22T23:09:12.358Z,99.04
2018-07-22T23:11:40.779Z,98.67
2018-07-22T23:14:09.056Z,98.78
2018-07-22T23:16:37.947Z,99.07
2018-07-22T23:19:06.116Z,99.00
2018-07-22T23:21:34.403Z,99.33
2018-07-22T23:24:02.576Z,99.20
2018-07-22T23:26:31.351Z,99.45
2018-07-22T23:28:59.739Z,99.36
2018-07-22T23:31:27.808Z,98.98
2018-07-22T23:33:56.100Z,99.13
2018-07-22T23:36:24.056Z,99.55
2018-07-22T23:38:52.132Z,98.92
2018-07-22T23:41:20.229Z,99.29
2018-07-22T23:43:48.295Z,99.23
2018-07-22T23:46:16.464Z,99.18
2018-07-22T23:48:44.824Z,98.92
2018-07-22T23:51:12.963Z,99.21
2018-07-22T23:53:41.285Z,99.02
2018-07-22T23:56:09.235Z,99.34
2018-07-22T23:58:37.203Z,99.78
